Time,TemperatureF,DewpointF,PressureIn,WindDirection,WindDirectionDegrees,WindSpeedMPH,WindSpeedGustMPH,Humidity,HourlyPrecipIn,Conditions,Clouds,dailyrainin,SolarRadiationWatts/m^2,SoftwareType,DateUTC
2013-03-13 00:12:00,46.0,16.0,-100.00,NE,38,0.0,4.0,30,-99.99,,,0.00,0.000000,,2013-03-13 07:12:00,
2013-03-13 00:22:00,46.0,16.0,-100.00,NE,38,0.0,4.0,30,-99.99,,,0.00,0.000000,,2013-03-13 07:22:00,
2013-03-13 00:42:00,46.0,16.0,-100.00,NE,38,0.0,4.0,30,-99.99,,,0.00,0.000000,,2013-03-13 07:42:00,
2013-03-13 00:51:00,48.0,20.0,-100.00,NE,51,0.0,4.0,32,-99.99,,,0.00,0.000000,,2013-03-13 07:51:00,
2013-03-13 01:22:00,48.0,20.0,-100.00,NE,51,0.0,4.0,32,-99.99,,,0.00,0.000000,,2013-03-13 08:22:00,
2013-03-13 01:42:00,48.0,20.0,-100.00,NE,51,0.0,4.0,32,-99.99,,,0.00,0.000000,,2013-03-13 08:42:00,
2013-03-13 01:51:00,49.0,15.0,-100.00,East,79,0.0,5.0,25,-99.99,,,0.00,0.000000,,2013-03-13 08:51:00,
2013-03-13 02:12:00,49.0,15.0,-100.00,East,79,0.0,5.0,25,-99.99,,,0.00,0.000000,,2013-03-13 09:12:00,
2013-03-13 02:22:00,49.0,15.0,-100.00,East,79,0.0,5.0,25,-99.99,,,0.00,0.000000,,2013-03-13 09:22:00,
2013-03-13 02:42:00,49.0,15.0,-100.00,East,79,0.0,5.0,25,-99.99,,,0.00,0.000000,,2013-03-13 09:42:00,
2013-03-13 02:51:00,46.0,11.0,-100.00,SE,127,0.0,3.0,24,0.00,,,0.00,0.000000,,2013-03-13 09:51:00,
2013-03-13 03:11:00,46.0,11.0,-100.00,SE,127,0.0,3.0,24,0.00,,,0.00,0.000000,,2013-03-13 10:11:00,
2013-03-13 03:22:00,46.0,11.0,-100.00,SE,127,0.0,3.0,24,0.00,,,0.00,0.000000,,2013-03-13 10:22:00,
2013-03-13 03:32:00,46.0,11.0,-100.00,SE,127,0.0,3.0,24,0.00,,,0.00,0.000000,,2013-03-13 10:32:00,
2013-03-13 03:42:00,46.0,11.0,-100.00,SE,127,0.0,3.0,24,0.00,,,0.00,0.000000,,2013-03-13 10:42:00,
2013-03-13 03:51:00,49.0,14.0,-100.00,SE,124,3.0,4.0,24,0.00,,,0.00,0.000000,,2013-03-13 10:51:00,
2013-03-13 04:12:00,49.0,14.0,-100.00,SE,124,3.0,4.0,24,0.00,,,0.00,0.000000,,2013-03-13 11:12:00,
2013-03-13 04:22:00,49.0,14.0,-100.00,SE,124,3.0,4.0,24,0.00,,,0.00,0.000000,,2013-03-13 11:22:00,
2013-03-13 04:42:00,49.0,14.0,-100.00,SE,124,3.0,4.0,24,0.00,,,0.00,0.000000,,2013-03-13 11:42:00,
2013-03-13 04:51:00,47.0,9.0,-100.00,SE,126,3.0,6.0,21,-99.99,,,0.00,0.000000,,2013-03-13 11:51:00,
2013-03-13 05:12:00,47.0,9.0,-100.00,SE,126,3.0,6.0,21,-99.99,,,0.00,0.000000,,2013-03-13 12:12:00,
2013-03-13 05:22:00,47.0,9.0,-100.00,SE,126,3.0,6.0,21,-99.99,,,0.00,0.000000,,2013-03-13 12:22:00,
2013-03-13 05:42:00,47.0,9.0,-100.00,SE,126,3.0,6.0,21,-99.99,,,0.00,0.000000,,2013-03-13 12:42:00,
2013-03-13 06:22:00,48.0,4.0,-100.00,SE,133,2.0,6.0,16,-99.99,,,0.00,0.000000,,2013-03-13 13:22:00,
2013-03-13 07:12:00,49.0,6.0,-100.00,SSE,148,4.0,6.0,17,0.00,,,0.00,0.000000,,2013-03-13 14:12:00,
2013-03-13 07:21:00,49.0,6.0,-100.00,SSE,148,4.0,6.0,17,0.00,,,0.00,0.000000,,2013-03-13 14:21:00,
2013-03-13 08:12:00,51.0,8.0,-100.00,SSE,148,1.0,7.0,17,-99.99,,,0.00,15.000000,,2013-03-13 15:12:00,
2013-03-13 08:51:00,56.0,14.0,-100.00,SE,141,2.0,6.0,19,-99.99,,,0.00,101.000000,,2013-03-13 15:51:00,
2013-03-13 09:22:00,56.0,14.0,-100.00,SE,141,2.0,6.0,19,-99.99,,,0.00,101.000000,,2013-03-13 16:22:00,
2013-03-13 09:42:00,56.0,14.0,-100.00,SE,141,2.0,6.0,19,-99.99,,,0.00,101.000000,,2013-03-13 16:42:00,
2013-03-13 09:51:00,63.0,16.0,-100.00,SE,146,2.0,7.0,16,0.00,,,0.00,462.000000,,2013-03-13 16:51:00,
2013-03-13 10:12:00,63.0,16.0,-100.00,SE,146,2.0,7.0,16,0.00,,,0.00,462.000000,,2013-03-13 17:12:00,
2013-03-13 10:22:00,63.0,16.0,-100.00,SE,146,2.0,7.0,16,0.00,,,0.00,462.000000,,2013-03-13 17:22:00,
2013-03-13 10:42:00,63.0,16.0,-100.00,SE,146,2.0,7.0,16,0.00,,,0.00,462.000000,,2013-03-13 17:42:00,
2013-03-13 10:51:00,64.0,18.0,-100.00,SE,141,3.0,6.0,17,0.00,,,0.00,894.000000,,2013-03-13 17:51:00,
2013-03-13 11:22:00,64.0,18.0,-100.00,SE,141,3.0,6.0,17,0.00,,,0.00,894.000000,,2013-03-13 18:22:00,
2013-03-13 11:42:00,64.0,18.0,-100.00,SE,141,3.0,6.0,17,0.00,,,0.00,894.000000,,2013-03-13 18:42:00,
2013-03-13 11:51:00,64.0,21.0,-100.00,SE,140,3.0,6.0,19,0.00,,,0.00,1106.000000,,2013-03-13 18:51:00,
2013-03-13 12:22:00,64.0,21.0,-100.00,SE,140,3.0,6.0,19,0.00,,,0.00,1106.000000,,2013-03-13 19:22:00,
2013-03-13 12:42:00,64.0,21.0,-100.00,SE,140,3.0,6.0,19,0.00,,,0.00,1106.000000,,2013-03-13 19:42:00,
2013-03-13 12:51:00,65.0,25.0,-100.00,SE,143,5.0,8.0,22,0.00,,,0.00,1232.000000,,2013-03-13 19:51:00,
2013-03-13 13:22:00,65.0,25.0,-100.00,SE,143,5.0,8.0,22,0.00,,,0.00,1232.000000,,2013-03-13 20:22:00,
2013-03-13 13:41:00,65.0,25.0,-100.00,SE,143,5.0,8.0,22,0.00,,,0.00,1232.000000,,2013-03-13 20:41:00,
2013-03-13 14:12:00,67.0,22.0,-100.00,SE,146,4.0,10.0,18,0.00,,,0.00,1267.000000,,2013-03-13 21:12:00,
2013-03-13 14:22:00,67.0,22.0,-100.00,SE,146,4.0,10.0,18,0.00,,,0.00,1267.000000,,2013-03-13 21:22:00,
2013-03-13 14:51:00,69.0,19.0,-100.00,SSE,150,3.0,10.0,15,0.00,,,0.00,1200.000000,,2013-03-13 21:51:00,
2013-03-13 15:22:00,69.0,19.0,-100.00,SSE,150,3.0,10.0,15,0.00,,,0.00,1200.000000,,2013-03-13 22:22:00,
2013-03-13 15:42:00,69.0,19.0,-100.00,SSE,150,3.0,10.0,15,0.00,,,0.00,1200.000000,,2013-03-13 22:42:00,
2013-03-13 15:51:00,66.0,20.0,-100.00,SE,126,0.0,9.0,17,-99.99,,,-99.99,1045.000000,,2013-03-13 22:51:00,
2013-03-13 16:12:00,66.0,20.0,-100.00,SE,126,0.0,9.0,17,-99.99,,,-99.99,1045.000000,,2013-03-13 23:12:00,
2013-03-13 16:22:00,66.0,20.0,-100.00,SE,126,0.0,9.0,17,-99.99,,,-99.99,1045.000000,,2013-03-13 23:22:00,
2013-03-13 16:42:00,66.0,20.0,-100.00,SE,126,0.0,9.0,17,-99.99,,,-99.99,1045.000000,,2013-03-13 23:42:00,
2013-03-13 16:51:00,60.0,23.0,-100.00,SE,132,0.0,5.0,24,-99.99,,,0.00,213.000000,,2013-03-13 23:51:00,
2013-03-13 17:22:00,60.0,23.0,-100.00,SE,132,0.0,5.0,24,-99.99,,,0.00,213.000000,,2013-03-14 00:22:00,
2013-03-13 17:42:00,60.0,23.0,-100.00,SE,132,0.0,5.0,24,-99.99,,,0.00,213.000000,,2013-03-14 00:42:00,
2013-03-13 17:51:00,58.0,19.0,-100.00,SE,129,0.0,5.0,22,0.00,,,0.00,118.000000,,2013-03-14 00:51:00,
2013-03-13 18:22:00,58.0,19.0,-100.00,SE,129,0.0,5.0,22,0.00,,,0.00,118.000000,,2013-03-14 01:22:00,
2013-03-13 18:42:00,58.0,19.0,-100.00,SE,129,0.0,5.0,22,0.00,,,0.00,118.000000,,2013-03-14 01:42:00,
2013-03-13 19:22:00,56.0,13.0,-100.00,SSE,149,0.0,4.0,18,0.00,,,0.00,84.000000,,2013-03-14 02:22:00,
2013-03-13 19:51:00,52.0,17.0,-100.00,East,92,0.0,3.0,25,0.00,,,0.00,2.000000,,2013-03-14 02:51:00,
2013-03-13 20:12:00,52.0,17.0,-100.00,East,92,0.0,3.0,25,0.00,,,0.00,2.000000,,2013-03-14 03:12:00,
2013-03-13 20:22:00,52.0,17.0,-100.00,East,92,0.0,3.0,25,0.00,,,0.00,2.000000,,2013-03-14 03:22:00,
2013-03-13 20:32:00,52.0,17.0,-100.00,East,92,0.0,3.0,25,0.00,,,0.00,2.000000,,2013-03-14 03:32:00,
2013-03-13 20:42:00,52.0,17.0,-100.00,East,92,0.0,3.0,25,0.00,,,0.00,2.000000,,2013-03-14 03:42:00,
2013-03-13 20:51:00,52.0,14.0,-100.00,ENE,74,0.0,3.0,22,0.00,,,0.00,0.000000,,2013-03-14 03:51:00,
2013-03-13 21:22:00,52.0,14.0,-100.00,ENE,74,0.0,3.0,22,0.00,,,0.00,0.000000,,2013-03-14 04:22:00,
2013-03-13 21:42:00,52.0,14.0,-100.00,ENE,74,0.0,3.0,22,0.00,,,0.00,0.000000,,2013-03-14 04:42:00,
2013-03-13 21:51:00,51.0,11.0,-100.00,East,92,0.0,0.0,20,-99.99,,,0.00,0.000000,,2013-03-14 04:51:00,
2013-03-13 22:22:00,51.0,11.0,-100.00,East,92,0.0,0.0,20,-99.99,,,0.00,0.000000,,2013-03-14 05:22:00,
2013-03-13 22:42:00,51.0,11.0,-100.00,East,92,0.0,0.0,20,-99.99,,,0.00,0.000000,,2013-03-14 05:42:00,
2013-03-13 22:51:00,52.0,11.0,-100.00,SE,146,1.0,5.0,19,0.00,,,0.00,0.000000,,2013-03-14 05:51:00,
2013-03-13 23:12:00,52.0,11.0,-100.00,SE,146,1.0,5.0,19,0.00,,,0.00,0.000000,,2013-03-14 06:12:00,
2013-03-13 23:22:00,52.0,11.0,-100.00,SE,146,1.0,5.0,19,0.00,,,0.00,0.000000,,2013-03-14 06:22:00,
2013-03-13 23:42:00,52.0,11.0,-100.00,SE,146,1.0,5.0,19,0.00,,,0.00,0.000000,,2013-03-14 06:42:00,